Time;durP1;ratioP1;P1;durP2;ratioP2;P2;SDS_P1;SDS_P2;PMS_P1;PMS_P2;Temp;Humidity;BMP_temperature;BMP_pressure;BME280_temperature;BME280_humidity;BME280_pressure;Samples;Min_cycle;Max_cycle;Signal;HPM_P1;HPM_P2
2022/09/03 00:00:42;;;;;;;6.80;6.20;;;;;;;19.28;nan;94995.00;5029851;28;20263;-67
2022/09/03 00:03:17;;;;;;;5.65;5.35;;;;;;;19.31;nan;94997.34;5029677;28;20319;-67
2022/09/03 00:05:51;;;;;;;7.38;6.75;;;;;;;19.30;nan;95003.41;5030700;28;20271;-67
2022/09/03 00:08:23;;;;;;;6.07;5.47;;;;;;;19.17;nan;95004.38;5028924;28;20206;-68
2022/09/03 00:10:55;;;;;;;8.80;5.28;;;;;;;19.07;nan;95005.91;5030119;28;20229;-67
2022/09/03 00:13:28;;;;;;;6.55;5.35;;;;;;;19.07;nan;95006.72;5029133;28;20259;-67
2022/09/03 00:15:58;;;;;;;7.40;5.68;;;;;;;19.09;nan;95004.06;5031331;28;20202;-67
2022/09/03 00:18:31;;;;;;;5.50;5.10;;;;;;;18.85;nan;95007.34;5024187;28;20757;-67
2022/09/03 00:21:07;;;;;;;5.80;5.30;;;;;;;18.96;nan;95010.06;5029449;28;20266;-66
2022/09/03 00:23:37;;;;;;;5.45;4.95;;;;;;;18.87;nan;94991.81;5027638;28;20244;-65
2022/09/03 00:26:18;;;;;;;6.22;4.97;;;;;;;18.73;nan;95002.22;5028689;28;20216;-67
2022/09/03 00:28:48;;;;;;;5.13;4.82;;;;;;;18.65;nan;94989.84;5029035;28;20211;-67
2022/09/03 00:31:20;;;;;;;6.32;5.80;;;;;;;18.68;nan;94989.66;5029455;28;20296;-67
2022/09/03 00:33:50;;;;;;;5.70;5.30;;;;;;;18.80;nan;94994.00;5028875;28;20205;-66
2022/09/03 00:36:23;;;;;;;9.20;8.30;;;;;;;18.73;nan;94987.59;5029590;28;20210;-65
2022/09/03 00:38:51;;;;;;;8.43;7.65;;;;;;;18.67;nan;94982.84;5029259;28;20206;-67
2022/09/03 00:41:30;;;;;;;5.93;5.43;;;;;;;18.69;nan;94984.41;5029789;28;20241;-67
2022/09/03 00:44:13;;;;;;;7.90;7.32;;;;;;;18.65;nan;94992.41;5029397;28;20210;-66
2022/09/03 00:46:46;;;;;;;9.02;8.25;;;;;;;18.60;nan;94982.44;5027780;28;20206;-66
2022/09/03 00:49:27;;;;;;;7.53;6.93;;;;;;;18.68;nan;94989.66;5029990;28;20203;-66
2022/09/03 00:52:02;;;;;;;6.28;5.78;;;;;;;18.93;nan;94993.97;5029279;28;20195;-67
2022/09/03 00:54:41;;;;;;;5.50;5.00;;;;;;;19.09;nan;94988.59;5028629;28;20233;-67
2022/09/03 00:57:24;;;;;;;6.50;5.63;;;;;;;18.95;nan;94999.84;5029042;28;20611;-67
2022/09/03 00:59:59;;;;;;;7.00;6.47;;;;;;;18.87;nan;94995.22;5030363;28;20565;-66
2022/09/03 01:02:34;;;;;;;6.60;6.20;;;;;;;18.93;nan;94999.94;5029884;28;20233;-66
2022/09/03 01:05:10;;;;;;;8.43;7.70;;;;;;;19.05;nan;94998.31;5027706;28;20210;-67
2022/09/03 01:07:45;;;;;;;7.90;7.25;;;;;;;19.07;nan;94991.28;5025128;28;20684;-69
2022/09/03 01:10:27;;;;;;;6.53;6.13;;;;;;;18.97;nan;94990.28;5028841;28;20225;-67
2022/09/03 01:13:02;;;;;;;7.70;7.10;;;;;;;18.82;nan;94992.13;5028049;28;20275;-67
2022/09/03 01:15:39;;;;;;;8.48;7.78;;;;;;;18.97;nan;94992.84;5030168;28;20201;-68
2022/09/03 01:18:17;;;;;;;7.28;6.68;;;;;;;18.93;nan;94992.22;5028400;28;21675;-68
2022/09/03 01:20:53;;;;;;;7.82;6.93;;;;;;;18.90;nan;94991.59;5028286;28;20622;-67
2022/09/03 01:23:42;;;;;;;9.00;8.20;;;;;;;19.04;nan;95006.97;5028979;28;20257;-68
2022/09/03 01:26:23;;;;;;;7.30;6.75;;;;;;;19.11;nan;95003.03;5028469;28;20627;-67
2022/09/03 01:29:06;;;;;;;7.03;6.50;;;;;;;18.90;nan;95005.31;5028275;28;20199;-66
2022/09/03 01:31:44;;;;;;;6.85;6.28;;;;;;;18.98;nan;95012.53;5029180;28;20243;-66
2022/09/03 01:34:20;;;;;;;8.60;7.35;;;;;;;19.08;nan;95023.00;5023141;28;20225;-67
2022/09/03 01:36:55;;;;;;;7.50;6.47;;;;;;;18.90;nan;95028.47;5025240;28;20685;-67
2022/09/03 01:39:32;;;;;;;8.10;7.40;;;;;;;18.89;nan;95028.59;5025840;28;21203;-67
2022/09/03 01:42:14;;;;;;;6.65;6.15;;;;;;;18.76;nan;95031.16;5026997;28;20746;-67
2022/09/03 01:44:52;;;;;;;5.68;5.28;;;;;;;18.39;nan;95034.44;5023818;28;20707;-67
2022/09/03 01:47:31;;;;;;;6.10;5.70;;;;;;;18.40;nan;95030.94;5023792;28;20213;-67
2022/09/03 01:50:04;;;;;;;5.72;5.32;;;;;;;18.05;nan;95021.19;5024603;28;20440;-68
2022/09/03 01:52:45;;;;;;;7.10;6.47;;;;;;;18.06;nan;95009.16;5024890;28;20293;-67
2022/09/03 01:55:25;;;;;;;6.10;5.70;;;;;;;17.93;nan;95016.81;5024836;28;20234;-67
2022/09/03 01:57:57;;;;;;;6.63;6.13;;;;;;;17.99;nan;95006.13;5026252;28;20206;-68
2022/09/03 02:00:30;;;;;;;6.13;5.72;;;;;;;17.99;nan;95011.28;5023862;28;20247;-69
2022/09/03 02:03:04;;;;;;;7.40;6.32;;;;;;;17.82;nan;95008.94;5025021;28;20234;-68
2022/09/03 02:05:31;;;;;;;7.00;6.50;;;;;;;17.92;nan;95007.44;5026150;28;20315;-67
2022/09/03 02:08:00;;;;;;;6.55;5.95;;;;;;;17.92;nan;95003.13;5025493;28;20198;-67
2022/09/03 02:10:31;;;;;;;6.13;5.63;;;;;;;17.96;nan;95007.16;5025666;28;20328;-67
2022/09/03 02:13:02;;;;;;;6.32;5.85;;;;;;;17.85;nan;95009.56;5026930;28;20203;-69
2022/09/03 02:15:33;;;;;;;7.38;6.78;;;;;;;17.97;nan;95013.94;5026680;28;20244;-67
2022/09/03 02:18:05;;;;;;;6.43;5.82;;;;;;;17.79;nan;95022.00;5026951;28;20210;-66
2022/09/03 02:20:33;;;;;;;7.00;6.40;;;;;;;17.68;nan;95017.50;5025968;28;20197;-67
2022/09/03 02:23:00;;;;;;;6.55;6.03;;;;;;;17.68;nan;95018.34;5027701;28;20376;-66
2022/09/03 02:25:33;;;;;;;6.82;6.32;;;;;;;17.70;nan;95018.25;5026791;28;20206;-67
2022/09/03 02:28:01;;;;;;;6.93;6.43;;;;;;;17.63;nan;95015.19;5027134;28;20202;-68
2022/09/03 02:30:28;;;;;;;7.30;6.70;;;;;;;17.76;nan;95023.00;5028000;28;20190;-67
2022/09/03 02:32:56;;;;;;;7.82;7.00;;;;;;;17.75;nan;95023.09;5027579;28;20275;-67
2022/09/03 02:35:23;;;;;;;6.43;5.93;;;;;;;17.72;nan;95021.53;5026398;28;20783;-67
2022/09/03 02:37:49;;;;;;;6.93;6.43;;;;;;;17.78;nan;95028.88;5027381;28;20234;-67
2022/09/03 02:40:16;;;;;;;7.32;6.68;;;;;;;17.68;nan;95026.03;5027198;28;22031;-67
2022/09/03 02:42:44;;;;;;;7.13;6.50;;;;;;;17.60;nan;95020.50;5026989;28;20219;-67
2022/09/03 02:45:21;;;;;;;7.43;6.72;;;;;;;17.66;nan;95025.31;5027062;28;20248;-67
2022/09/03 02:47:52;;;;;;;8.45;7.25;;;;;;;17.53;nan;95031.28;5031198;28;20213;-67
2022/09/03 02:50:20;;;;;;;6.82;6.22;;;;;;;17.51;nan;95040.81;5030826;28;20229;-66
2022/09/03 02:52:46;;;;;;;7.45;6.95;;;;;;;17.52;nan;95035.59;5030567;28;20668;-68
2022/09/03 02:55:14;;;;;;;8.05;7.30;;;;;;;17.46;nan;95043.66;5031439;28;20295;-67
2022/09/03 02:57:41;;;;;;;7.72;7.00;;;;;;;17.38;nan;95033.03;5031526;28;20206;-67
2022/09/03 03:00:09;;;;;;;9.07;7.80;;;;;;;17.44;nan;95029.25;5028647;28;21521;-67
2022/09/03 03:02:36;;;;;;;7.28;6.68;;;;;;;17.50;nan;95037.44;5029652;28;20295;-67
2022/09/03 03:05:03;;;;;;;7.05;6.55;;;;;;;17.51;nan;95031.38;5030366;28;20689;-67
2022/09/03 03:07:36;;;;;;;9.80;7.25;;;;;;;17.42;nan;95042.19;5028259;28;20202;-67
2022/09/03 03:10:04;;;;;;;7.38;6.85;;;;;;;17.39;nan;95036.41;5030325;28;20233;-67
2022/09/03 03:12:31;;;;;;;7.85;7.20;;;;;;;17.40;nan;95033.75;5028548;28;20207;-67
2022/09/03 03:14:57;;;;;;;7.20;6.70;;;;;;;17.31;nan;95034.34;5029113;28;20210;-67
2022/09/03 03:17:25;;;;;;;7.18;6.68;;;;;;;17.31;nan;95018.91;5029573;28;20202;-68
2022/09/03 03:19:51;;;;;;;7.50;6.88;;;;;;;17.33;nan;95033.28;5029865;28;20588;-67
2022/09/03 03:22:18;;;;;;;7.03;6.53;;;;;;;17.22;nan;95028.00;5029437;28;20989;-67
2022/09/03 03:24:49;;;;;;;9.75;6.65;;;;;;;17.22;nan;95020.28;5031762;28;20637;-66
2022/09/03 03:27:15;;;;;;;7.30;6.80;;;;;;;17.22;nan;95028.00;5030531;28;20695;-66
2022/09/03 03:29:42;;;;;;;6.63;6.13;;;;;;;17.31;nan;95029.19;5030659;28;20255;-67
2022/09/03 03:32:09;;;;;;;7.68;7.07;;;;;;;17.40;nan;95036.31;5029004;28;20202;-67
2022/09/03 03:34:36;;;;;;;11.32;7.78;;;;;;;17.33;nan;95027.31;5031367;28;20194;-66
2022/09/03 03:37:03;;;;;;;8.52;7.65;;;;;;;17.42;nan;95037.06;5029919;28;20197;-69
2022/09/03 03:39:30;;;;;;;7.30;6.68;;;;;;;17.35;nan;95021.19;5031539;28;20211;-66
2022/09/03 03:41:58;;;;;;;7.78;7.18;;;;;;;17.35;nan;95028.88;5029182;28;20210;-69
2022/09/03 03:44:25;;;;;;;7.85;6.28;;;;;;;17.37;nan;95027.97;5031106;28;20345;-67
2022/09/03 03:46:51;;;;;;;7.70;7.10;;;;;;;17.29;nan;95031.03;5030483;28;20201;-67
2022/09/03 03:49:18;;;;;;;7.70;6.18;;;;;;;17.43;nan;95036.13;5030095;28;20238;-67
2022/09/03 03:51:45;;;;;;;6.85;6.22;;;;;;;17.53;nan;95034.69;5029911;28;20223;-67
2022/09/03 03:54:12;;;;;;;7.80;7.18;;;;;;;17.60;nan;95035.09;5031116;28;20287;-67
2022/09/03 03:56:38;;;;;;;7.10;6.45;;;;;;;17.60;nan;95033.34;5029970;28;22685;-66
2022/09/03 03:59:07;;;;;;;6.63;6.13;;;;;;;17.50;nan;95037.44;5029555;28;20226;-67
2022/09/03 04:01:33;;;;;;;7.88;7.30;;;;;;;17.47;nan;95040.19;5029246;28;20264;-67
2022/09/03 04:04:00;;;;;;;7.43;6.82;;;;;;;17.44;nan;95036.97;5029948;28;20328;-66
2022/09/03 04:06:27;;;;;;;7.68;7.07;;;;;;;17.42;nan;95034.50;5028006;28;20226;-66
2022/09/03 04:08:54;;;;;;;7.63;7.03;;;;;;;17.43;nan;95035.31;5027656;28;20203;-67
2022/09/03 04:11:22;;;;;;;8.55;7.22;;;;;;;17.33;nan;95028.16;5029253;28;20217;-67
2022/09/03 04:13:50;;;;;;;8.65;7.85;;;;;;;17.35;nan;95030.63;5030031;28;20203;-66
2022/09/03 04:16:21;;;;;;;8.65;7.93;;;;;;;17.30;nan;95036.06;5030630;28;20758;-68
2022/09/03 04:18:48;;;;;;;8.02;7.15;;;;;;;17.28;nan;95034.50;5029107;28;20238;-66
2022/09/03 04:21:17;;;;;;;7.40;6.80;;;;;;;17.24;nan;95033.88;5028786;28;20291;-67
2022/09/03 04:23:45;;;;;;;7.93;7.20;;;;;;;17.26;nan;95033.78;5029272;28;20311;-67
2022/09/03 04:26:14;;;;;;;24.90;8.85;;;;;;;17.20;nan;95032.41;5029906;28;20209;-67
2022/09/03 04:28:41;;;;;;;7.65;6.88;;;;;;;17.29;nan;95042.13;5028927;28;21627;-67
2022/09/03 04:31:10;;;;;;;7.80;7.10;;;;;;;17.20;nan;95047.81;5029636;28;20206;-68
2022/09/03 04:33:39;;;;;;;7.80;7.10;;;;;;;17.29;nan;95047.25;5029118;28;20210;-67
2022/09/03 04:36:07;;;;;;;15.98;11.80;;;;;;;17.27;nan;95054.22;5030722;28;20202;-67
2022/09/03 04:38:35;;;;;;;15.20;12.48;;;;;;;17.28;nan;95060.19;5029766;28;20271;-67
2022/09/03 04:41:03;;;;;;;12.13;10.50;;;;;;;17.19;nan;95061.56;5029313;28;20206;-67
2022/09/03 04:43:29;;;;;;;15.00;12.95;;;;;;;17.28;nan;95065.34;5028798;28;20348;-67
2022/09/03 04:45:58;;;;;;;9.10;7.70;;;;;;;17.17;nan;95067.69;5029167;28;20321;-68
2022/09/03 04:48:25;;;;;;;7.47;6.75;;;;;;;17.11;nan;95068.06;5028209;28;20572;-67
2022/09/03 04:50:53;;;;;;;7.88;7.22;;;;;;;17.13;nan;95079.06;5029808;28;20210;-65
2022/09/03 04:53:21;;;;;;;8.57;6.93;;;;;;;17.19;nan;95082.09;5029304;28;20224;-66
2022/09/03 04:55:48;;;;;;;7.63;7.00;;;;;;;17.31;nan;95080.56;5029236;28;20231;-66
2022/09/03 04:58:14;;;;;;;8.38;7.75;;;;;;;17.32;nan;95093.28;5027842;28;20291;-66
2022/09/03 05:00:41;;;;;;;7.25;6.65;;;;;;;17.37;nan;95095.59;5028898;28;20206;-67
2022/09/03 05:03:08;;;;;;;7.45;6.72;;;;;;;17.31;nan;95088.28;5029642;28;20750;-66
2022/09/03 05:05:34;;;;;;;8.23;7.45;;;;;;;17.30;nan;95087.44;5029543;28;20258;-65
2022/09/03 05:08:03;;;;;;;7.57;6.97;;;;;;;17.42;nan;95098.72;5024846;28;20211;-67
2022/09/03 05:10:31;;;;;;;11.95;10.75;;;;;;;17.56;nan;95096.16;5027748;28;20569;-66
2022/09/03 05:13:00;;;;;;;9.45;8.65;;;;;;;17.55;nan;95104.78;5029239;28;20198;-66
2022/09/03 05:15:27;;;;;;;6.97;6.38;;;;;;;17.52;nan;95104.97;5029075;28;20229;-66
2022/09/03 05:17:58;;;;;;;6.18;5.78;;;;;;;17.43;nan;95095.22;5029553;28;20230;-69
2022/09/03 05:20:25;;;;;;;6.97;6.25;;;;;;;17.41;nan;95107.34;5027421;28;20665;-68
2022/09/03 05:22:52;;;;;;;6.93;6.43;;;;;;;17.27;nan;95103.03;5028937;28;20825;-67
2022/09/03 05:25:21;;;;;;;6.55;6.10;;;;;;;17.43;nan;95100.38;5029067;28;20202;-67
2022/09/03 05:27:48;;;;;;;5.80;5.45;;;;;;;17.47;nan;95101.00;5028096;28;20203;-67
2022/09/03 05:30:15;;;;;;;7.55;6.88;;;;;;;17.47;nan;95106.16;5027788;28;20202;-67
2022/09/03 05:32:42;;;;;;;7.07;6.47;;;;;;;17.50;nan;95100.84;5027152;28;20255;-68
2022/09/03 05:35:10;;;;;;;7.00;6.50;;;;;;;17.46;nan;95099.38;5028521;28;20635;-67
2022/09/03 05:37:38;;;;;;;7.15;6.65;;;;;;;17.57;nan;95109.84;5028665;28;20289;-67
2022/09/03 05:40:09;;;;;;;12.68;10.73;;;;;;;17.34;nan;95106.88;5027877;28;20594;-68
2022/09/03 05:42:38;;;;;;;10.25;9.20;;;;;;;17.50;nan;95113.69;5027436;28;20293;-67
2022/09/03 05:45:08;;;;;;;10.02;9.00;;;;;;;17.59;nan;95111.38;5027708;28;20230;-67
2022/09/03 05:47:35;;;;;;;7.55;6.95;;;;;;;17.60;nan;95105.31;5027850;28;20202;-66
2022/09/03 05:50:02;;;;;;;7.72;7.22;;;;;;;17.62;nan;95118.91;5028593;28;20766;-70
2022/09/03 05:52:29;;;;;;;6.13;5.65;;;;;;;17.59;nan;95110.53;5028673;28;20317;-67
2022/09/03 05:54:55;;;;;;;9.10;8.23;;;;;;;17.56;nan;95115.88;5027579;28;20230;-67
2022/09/03 05:57:22;;;;;;;6.82;6.30;;;;;;;17.64;nan;95118.81;5028964;28;20275;-66
2022/09/03 05:59:51;;;;;;;6.70;6.30;;;;;;;17.71;nan;95120.13;5028331;28;20625;-67
2022/09/03 06:02:18;;;;;;;7.22;6.68;;;;;;;17.83;nan;95119.38;5028080;28;20213;-67
2022/09/03 06:04:45;;;;;;;7.32;6.63;;;;;;;17.86;nan;95119.19;5028370;28;20248;-66
2022/09/03 06:07:12;;;;;;;7.72;7.05;;;;;;;17.97;nan;95121.13;5027340;28;20295;-67
2022/09/03 06:09:39;;;;;;;6.10;5.65;;;;;;;17.92;nan;95123.13;5027572;28;20206;-67
2022/09/03 06:12:06;;;;;;;7.57;6.70;;;;;;;17.92;nan;95128.28;5027870;28;20213;-66
2022/09/03 06:14:32;;;;;;;7.88;7.28;;;;;;;18.07;nan;95126.50;5027972;28;20679;-69
2022/09/03 06:17:00;;;;;;;7.20;6.57;;;;;;;18.36;nan;95125.50;5028868;28;20194;-67
2022/09/03 06:19:27;;;;;;;7.15;6.68;;;;;;;18.73;nan;95129.19;5027406;28;20206;-67
2022/09/03 06:21:54;;;;;;;7.30;6.70;;;;;;;18.79;nan;95131.38;5031159;28;20234;-68
2022/09/03 06:24:23;;;;;;;7.15;6.53;;;;;;;18.86;nan;95122.31;5031310;28;20341;-67
2022/09/03 06:26:50;;;;;;;7.00;6.28;;;;;;;19.02;nan;95125.56;5031099;28;20244;-65
2022/09/03 06:29:19;;;;;;;8.07;6.15;;;;;;;19.53;nan;95130.78;5030826;28;20267;-67
2022/09/03 06:31:47;;;;;;;7.15;6.53;;;;;;;19.93;nan;95123.69;5031497;28;20206;-67
2022/09/03 06:34:17;;;;;;;12.23;5.95;;;;;;;20.21;nan;95135.50;5031414;28;20212;-66
2022/09/03 06:36:44;;;;;;;7.20;6.70;;;;;;;20.10;nan;95137.16;5030473;28;20194;-67
2022/09/03 06:39:11;;;;;;;6.00;5.60;;;;;;;19.89;nan;95142.06;5029483;28;20334;-67
2022/09/03 06:41:38;;;;;;;9.63;7.00;;;;;;;19.75;nan;95142.19;5030283;28;20837;-66
2022/09/03 06:44:10;;;;;;;6.85;6.25;;;;;;;20.01;nan;95136.06;5029360;28;20230;-68
2022/09/03 06:46:38;;;;;;;7.25;6.75;;;;;;;19.95;nan;95134.72;5030105;28;20271;-67
2022/09/03 06:49:05;;;;;;;7.97;7.35;;;;;;;19.96;nan;95135.56;5028825;28;20202;-68
2022/09/03 06:51:34;;;;;;;7.75;7.20;;;;;;;19.64;nan;95130.84;5029816;28;20288;-68
2022/09/03 06:54:03;;;;;;;7.15;6.75;;;;;;;19.29;nan;95137.53;5030080;28;20222;-67
2022/09/03 06:56:31;;;;;;;7.25;6.57;;;;;;;19.35;nan;95140.50;5030869;28;20897;-67
2022/09/03 06:59:00;;;;;;;10.43;7.07;;;;;;;19.24;nan;95137.00;5030257;28;20259;-67
2022/09/03 07:01:29;;;;;;;7.63;7.00;;;;;;;19.19;nan;95139.06;5031828;28;20215;-67
2022/09/03 07:03:59;;;;;;;7.18;6.57;;;;;;;19.14;nan;95147.09;5031105;28;20230;-66
2022/09/03 07:06:28;;;;;;;6.85;6.28;;;;;;;19.11;nan;95142.13;5030448;28;20634;-67
2022/09/03 07:08:56;;;;;;;6.88;6.18;;;;;;;19.11;nan;95146.47;5030028;28;20217;-69
2022/09/03 07:11:26;;;;;;;8.30;7.60;;;;;;;18.93;nan;95149.31;5030718;28;20205;-67
2022/09/03 07:13:54;;;;;;;6.82;6.43;;;;;;;18.81;nan;95150.09;5031780;28;20747;-68
2022/09/03 07:16:23;;;;;;;7.63;7.03;;;;;;;18.97;nan;95147.38;5030170;28;20716;-67
2022/09/03 07:18:51;;;;;;;7.95;6.68;;;;;;;19.07;nan;95155.31;5029986;28;20210;-67
2022/09/03 07:21:19;;;;;;;6.78;6.28;;;;;;;19.25;nan;95151.53;5030861;28;20206;-67
2022/09/03 07:23:47;;;;;;;8.23;7.63;;;;;;;19.86;nan;95158.56;5030855;28;20241;-69
2022/09/03 07:26:18;;;;;;;6.72;6.10;;;;;;;20.76;nan;95157.44;5031143;28;20202;-66
2022/09/03 07:28:46;;;;;;;5.95;5.45;;;;;;;22.16;nan;95167.63;5029678;28;20614;-67
2022/09/03 07:31:17;;;;;;;5.65;5.25;;;;;;;23.32;nan;95163.53;5031439;28;20271;-67
2022/09/03 07:33:44;;;;;;;4.88;4.57;;;;;;;23.38;nan;95160.44;5031045;28;21878;-68
2022/09/03 07:36:13;;;;;;;6.63;5.90;;;;;;;23.21;nan;95166.19;5029256;28;20683;-67
2022/09/03 07:38:41;;;;;;;6.10;5.63;;;;;;;23.09;nan;95165.41;5027787;28;21608;-67
2022/09/03 07:41:09;;;;;;;5.57;5.28;;;;;;;22.75;nan;95169.88;5029758;28;20202;-68
2022/09/03 07:43:39;;;;;;;6.45;5.85;;;;;;;22.75;nan;95169.88;5030752;28;20238;-67
2022/09/03 07:46:07;;;;;;;6.50;6.00;;;;;;;22.49;nan;95163.34;5028725;28;20244;-67
2022/09/03 07:48:34;;;;;;;6.10;5.60;;;;;;;22.55;nan;95158.50;5030409;28;20213;-67
2022/09/03 07:51:01;;;;;;;5.85;5.45;;;;;;;22.55;nan;95163.66;5031568;28;20222;-67
2022/09/03 07:53:29;;;;;;;5.13;4.68;;;;;;;22.27;nan;95167.59;5029772;28;20230;-68
2022/09/03 07:56:01;;;;;;;6.47;5.97;;;;;;;22.26;nan;95173.75;5028287;28;20216;-67
2022/09/03 07:58:29;;;;;;;5.63;5.22;;;;;;;22.05;nan;95175.38;5028907;28;20264;-67
2022/09/03 08:00:57;;;;;;;5.68;5.28;;;;;;;21.77;nan;95178.44;5031308;28;20217;-67
2022/09/03 08:03:24;;;;;;;5.53;5.05;;;;;;;21.95;nan;95171.84;5028647;28;20244;-67
2022/09/03 08:05:51;;;;;;;5.25;4.95;;;;;;;22.34;nan;95179.13;5029388;28;20238;-67
2022/09/03 08:08:17;;;;;;;7.70;5.65;;;;;;;22.48;nan;95172.06;5028403;28;20206;-67
2022/09/03 08:10:44;;;;;;;5.97;5.35;;;;;;;22.38;nan;95177.97;5028512;28;20259;-67
2022/09/03 08:13:11;;;;;;;5.60;5.13;;;;;;;22.37;nan;95176.31;5026979;28;20233;-67
2022/09/03 08:15:39;;;;;;;5.57;5.18;;;;;;;22.42;nan;95172.53;5026754;28;20226;-67
2022/09/03 08:18:07;;;;;;;5.72;5.32;;;;;;;22.24;nan;95175.63;5026730;28;20297;-67
2022/09/03 08:20:34;;;;;;;5.85;5.40;;;;;;;22.04;nan;95181.50;5028838;28;20579;-68
2022/09/03 08:23:02;;;;;;;6.68;6.28;;;;;;;21.99;nan;95175.84;5030052;28;20671;-68
2022/09/03 08:25:29;;;;;;;6.03;5.63;;;;;;;21.82;nan;95179.69;5026471;28;20257;-68
2022/09/03 08:27:58;;;;;;;5.00;4.60;;;;;;;21.61;nan;95171.81;5028183;28;20589;-68
2022/09/03 08:30:26;;;;;;;5.43;5.13;;;;;;;21.56;nan;95171.31;5030422;28;20726;-68
2022/09/03 08:32:53;;;;;;;5.32;4.38;;;;;;;21.38;nan;95177.88;5028330;28;20281;-67
2022/09/03 08:35:21;;;;;;;4.35;4.05;;;;;;;21.54;nan;95165.44;5027880;28;20636;-68
2022/09/03 08:37:50;;;;;;;4.97;4.55;;;;;;;22.08;nan;95167.38;5027955;28;20202;-67
2022/09/03 08:40:17;;;;;;;4.80;4.30;;;;;;;23.21;nan;95171.38;5028638;28;20293;-68
2022/09/03 08:42:56;;;;;;;4.85;4.55;;;;;;;23.66;nan;95162.44;5029094;28;20225;-68
2022/09/03 08:45:23;;;;;;;4.95;4.70;;;;;;;23.24;nan;95165.94;5027653;28;20229;-68
2022/09/03 08:47:57;;;;;;;5.15;4.85;;;;;;;23.16;nan;95163.97;5028756;28;20676;-68
2022/09/03 08:50:29;;;;;;;5.28;4.93;;;;;;;23.33;nan;95160.00;5029417;28;20206;-68
2022/09/03 08:53:00;;;;;;;4.68;4.40;;;;;;;23.28;nan;95164.72;5029482;28;20214;-69
2022/09/03 08:55:29;;;;;;;5.15;4.75;;;;;;;23.47;nan;95166.66;5028777;28;20767;-69
2022/09/03 08:58:03;;;;;;;4.93;4.70;;;;;;;23.88;nan;95165.81;5029216;28;20638;-68
2022/09/03 09:00:41;;;;;;;6.45;5.95;;;;;;;24.20;nan;95168.28;5028142;28;20596;-68
2022/09/03 09:03:37;;;;;;;6.10;5.60;;;;;;;23.83;nan;95170.56;5028838;28;20201;-68
2022/09/03 09:06:16;;;;;;;4.75;4.55;;;;;;;23.50;nan;95172.41;5024014;28;20237;-68
2022/09/03 09:08:55;;;;;;;4.95;4.68;;;;;;;24.01;nan;95177.59;5028275;28;20198;-69
2022/09/03 09:11:32;;;;;;;4.68;4.38;;;;;;;24.14;nan;95169.63;5028906;28;20832;-66
2022/09/03 09:14:03;;;;;;;4.35;4.05;;;;;;;24.41;nan;95180.25;5027351;28;20240;-66
2022/09/03 09:16:39;;;;;;;4.05;3.85;;;;;;;24.06;nan;95169.44;5027132;28;20251;-65
2022/09/03 09:19:19;;;;;;;4.72;4.43;;;;;;;23.69;nan;95172.56;5027322;28;20206;-66
2022/09/03 09:21:53;;;;;;;4.82;4.43;;;;;;;23.34;nan;95175.44;5028703;28;20202;-67
2022/09/03 09:24:25;;;;;;;4.72;4.53;;;;;;;22.80;nan;95178.13;5028628;28;20226;-68
2022/09/03 09:26:59;;;;;;;5.40;4.32;;;;;;;22.77;nan;95175.75;5027791;28;20633;-68
2022/09/03 09:29:29;;;;;;;5.13;4.82;;;;;;;22.94;nan;95177.84;5027687;28;20251;-68
2022/09/03 09:31:57;;;;;;;5.28;4.93;;;;;;;23.45;nan;95179.75;5028325;28;20237;-67
2022/09/03 09:34:24;;;;;;;4.53;4.32;;;;;;;23.95;nan;95178.16;5027876;28;20309;-67
2022/09/03 09:36:54;;;;;;;4.47;4.07;;;;;;;23.88;nan;95176.19;5027401;28;20757;-67
2022/09/03 09:39:21;;;;;;;3.92;3.72;;;;;;;23.43;nan;95186.81;5027335;28;20253;-67
2022/09/03 09:41:58;;;;;;;4.53;4.30;;;;;;;23.40;nan;95176.69;5028306;28;22249;-68
2022/09/03 09:44:26;;;;;;;4.70;4.30;;;;;;;23.71;nan;95177.63;5027065;28;20217;-66
2022/09/03 09:47:05;;;;;;;4.75;4.35;;;;;;;24.00;nan;95181.16;5028134;28;20202;-66
2022/09/03 09:49:34;;;;;;;4.03;3.83;;;;;;;24.05;nan;95172.97;5027692;28;20286;-66
2022/09/03 09:52:07;;;;;;;4.20;4.00;;;;;;;24.02;nan;95178.44;5028200;28;20225;-66
2022/09/03 09:54:34;;;;;;;4.22;4.00;;;;;;;23.76;nan;95172.03;5026538;28;20230;-66
2022/09/03 09:57:03;;;;;;;3.95;3.75;;;;;;;23.60;nan;95178.50;5027521;28;21590;-67
2022/09/03 09:59:31;;;;;;;4.90;4.53;;;;;;;23.64;nan;95182.50;5026103;28;20697;-65
2022/09/03 10:02:12;;;;;;;4.03;3.72;;;;;;;23.60;nan;95186.28;5026574;28;20218;-67
2022/09/03 10:04:39;;;;;;;4.15;3.95;;;;;;;23.58;nan;95190.78;5024489;28;20715;-67
2022/09/03 10:07:23;;;;;;;4.80;4.50;;;;;;;23.78;nan;95180.50;5020032;28;20229;-68
2022/09/03 10:10:01;;;;;;;5.68;4.53;;;;;;;23.63;nan;95185.19;5025337;28;20206;-67
2022/09/03 10:12:33;;;;;;;4.90;4.60;;;;;;;23.90;nan;95179.47;5026783;28;20741;-68
2022/09/03 10:15:09;;;;;;;4.15;3.85;;;;;;;23.94;nan;95179.09;5026389;28;20702;-68
2022/09/03 10:17:45;;;;;;;4.47;4.18;;;;;;;24.04;nan;95176.53;5028367;28;20226;-68
2022/09/03 10:20:29;;;;;;;4.65;4.45;;;;;;;24.26;nan;95176.38;5024152;28;20338;-68
2022/09/03 10:23:02;;;;;;;4.72;4.43;;;;;;;24.24;nan;95178.31;5024485;28;20210;-68
2022/09/03 10:25:38;;;;;;;6.30;5.90;;;;;;;24.03;nan;95175.72;5019005;28;20234;-67
2022/09/03 10:28:08;;;;;;;7.18;6.65;;;;;;;23.85;nan;95166.88;5026757;28;20785;-68
2022/09/03 10:30:48;;;;;;;9.43;8.48;;;;;;;24.01;nan;95175.00;5026648;28;20676;-68
2022/09/03 10:33:22;;;;;;;11.70;10.40;;;;;;;24.05;nan;95172.97;5028048;28;20235;-68
2022/09/03 10:35:56;;;;;;;9.55;8.43;;;;;;;23.95;nan;95169.53;5027197;28;20291;-68
2022/09/03 10:38:29;;;;;;;15.38;12.82;;;;;;;24.06;nan;95172.03;5025698;28;20208;-70
2022/09/03 10:41:05;;;;;;;6.50;6.00;;;;;;;24.21;nan;95162.13;5025837;28;20206;-70
2022/09/03 10:43:53;;;;;;;4.68;4.40;;;;;;;24.35;nan;95167.78;5028622;28;20714;-71
2022/09/03 10:46:27;;;;;;;6.25;5.75;;;;;;;24.54;nan;95163.59;5028123;28;20554;-71
2022/09/03 10:49:18;;;;;;;6.60;6.18;;;;;;;24.65;nan;95173.88;5026855;28;20212;-70
2022/09/03 10:51:55;;;;;;;6.45;6.15;;;;;;;24.65;nan;95171.28;5023859;28;20206;-70
2022/09/03 10:54:36;;;;;;;5.13;4.75;;;;;;;24.49;nan;95181.38;5026817;28;22587;-71
2022/09/03 10:57:12;;;;;;;5.00;4.57;;;;;;;24.63;nan;95178.41;5028811;28;20198;-70
2022/09/03 10:59:52;;;;;;;6.20;5.80;;;;;;;24.85;nan;95172.13;5028424;28;20287;-70
2022/09/03 11:02:47;;;;;;;4.43;4.22;;;;;;;24.58;nan;95180.56;5026124;28;20209;-70
2022/09/03 11:05:18;;;;;;;6.10;5.70;;;;;;;24.74;nan;95175.69;5028788;28;20237;-71
2022/09/03 11:07:52;;;;;;;4.53;4.32;;;;;;;24.77;nan;95175.41;5031711;28;20371;-71
2022/09/03 11:10:25;;;;;;;3.97;3.78;;;;;;;24.73;nan;95174.88;5030767;28;20319;-71
2022/09/03 11:13:02;;;;;;;4.53;4.22;;;;;;;24.54;nan;95176.59;5030892;28;20226;-70
2022/09/03 11:15:33;;;;;;;4.15;3.95;;;;;;;24.06;nan;95172.84;5029884;28;20275;-71
2022/09/03 11:18:07;;;;;;;3.95;3.75;;;;;;;24.20;nan;95176.88;5030763;28;20236;-71
2022/09/03 11:20:35;;;;;;;4.70;4.40;;;;;;;24.47;nan;95184.13;5029127;28;20629;-70
2022/09/03 11:23:04;;;;;;;4.53;4.30;;;;;;;24.54;nan;95172.22;5027802;28;20202;-72
2022/09/03 11:25:35;;;;;;;4.65;4.43;;;;;;;24.52;nan;95171.53;5028114;28;20218;-70
2022/09/03 11:28:18;;;;;;;4.13;3.90;;;;;;;24.70;nan;95174.31;5027372;28;22982;-70
2022/09/03 11:30:59;;;;;;;4.35;4.15;;;;;;;24.70;nan;95171.72;5028045;28;20230;-70
2022/09/03 11:33:28;;;;;;;4.50;4.30;;;;;;;24.89;nan;95176.94;5031022;28;20210;-71
2022/09/03 11:35:57;;;;;;;4.28;4.07;;;;;;;24.72;nan;95162.00;5028919;28;20248;-70
2022/09/03 11:38:27;;;;;;;4.53;4.32;;;;;;;24.90;nan;95165.56;5026453;28;20210;-71
2022/09/03 11:41:13;;;;;;;4.60;4.40;;;;;;;24.96;nan;95170.28;5027808;28;20202;-70
2022/09/03 11:43:41;;;;;;;4.72;4.35;;;;;;;24.74;nan;95162.69;5029713;28;20714;-72
2022/09/03 11:46:14;;;;;;;4.65;4.35;;;;;;;24.70;nan;95169.13;5029179;28;20656;-72
2022/09/03 11:48:43;;;;;;;4.57;4.30;;;;;;;24.76;nan;95164.19;5030825;28;20234;-71
2022/09/03 11:51:30;;;;;;;4.88;4.57;;;;;;;24.95;nan;95162.59;5029581;28;20230;-71
2022/09/03 11:53:59;;;;;;;4.75;4.55;;;;;;;24.73;nan;95163.66;5028469;28;20331;-69
2022/09/03 11:56:28;;;;;;;4.75;4.53;;;;;;;24.66;nan;95163.34;5028911;28;20206;-70
2022/09/03 11:59:18;;;;;;;7.07;6.57;;;;;;;24.88;nan;95157.09;5030724;28;20676;-70
2022/09/03 12:01:52;;;;;;;9.55;8.85;;;;;;;24.95;nan;95173.84;5029544;28;20210;-72
2022/09/03 12:04:22;;;;;;;7.50;7.00;;;;;;;24.97;nan;95164.13;5028906;28;20771;-72
2022/09/03 12:07:11;;;;;;;6.60;6.20;;;;;;;24.89;nan;95158.72;5029182;28;20645;-71